createdAt,value
2023-01-04T00:02:11.504Z,98246.75
2023-01-04T00:04:40.205Z,98237.59
2023-01-04T00:07:08.810Z,98236.78
2023-01-04T00:09:37.395Z,98231.25
2023-01-04T00:12:06.465Z,98238.31
2023-01-04T00:14:35.021Z,98242.41
2023-01-04T00:17:04.662Z,98242.16
2023-01-04T00:19:33.736Z,98236.19
2023-01-04T00:22:02.123Z,98228.09
2023-01-04T00:24:30.353Z,98222.81
2023-01-04T00:26:58.592Z,98223.75
2023-01-04T00:29:27.185Z,98215.00
2023-01-04T00:31:55.698Z,98208.19
2023-01-04T00:34:25.311Z,98195.78
2023-01-04T00:36:53.896Z,98201.63
2023-01-04T00:39:22.393Z,98206.09
2023-01-04T00:42:01.255Z,98207.72
2023-01-04T00:44:30.835Z,98202.44
2023-01-04T00:46:59.485Z,98205.63
2023-01-04T00:49:30.613Z,98186.75
2023-01-04T00:51:59.444Z,98196.94
2023-01-04T00:54:28.227Z,98196.13
2023-01-04T00:56:56.889Z,98199.88
2023-01-04T00:59:25.572Z,98201.03
2023-01-04T01:01:54.657Z,98203.75
2023-01-04T01:04:25.412Z,98210.75
2023-01-04T01:06:55.283Z,98207.47
2023-01-04T01:09:23.958Z,98206.66
2023-01-04T01:11:53.871Z,98200.69
2023-01-04T01:14:25.757Z,98213.94
2023-01-04T01:16:58.058Z,98211.47
2023-01-04T01:19:29.562Z,98203.16
2023-01-04T01:22:00.093Z,98210.19
2023-01-04T01:24:29.420Z,98219.56
2023-01-04T01:26:58.007Z,98217.22
2023-01-04T01:29:26.722Z,98202.09
2023-01-04T01:31:55.399Z,98202.66
2023-01-04T01:34:23.864Z,98206.19
2023-01-04T01:36:52.530Z,98211.94
2023-01-04T01:39:22.252Z,98210.16
2023-01-04T01:41:50.940Z,98196.81
2023-01-04T01:45:00.027Z,98204.06
2023-01-04T01:47:35.250Z,98217.53
2023-01-04T01:50:06.233Z,98210.06
2023-01-04T01:52:41.546Z,98204.16
2023-01-04T01:55:13.860Z,98205.56
2023-01-04T01:57:43.066Z,98200.16
2023-01-04T02:00:16.625Z,98201.81
2023-01-04T02:02:56.781Z,98201.09
2023-01-04T02:05:28.360Z,98193.50
2023-01-04T02:07:56.592Z,98187.72
2023-01-04T02:10:27.307Z,98189.28
2023-01-04T02:12:56.064Z,98187.16
2023-01-04T02:15:29.641Z,98185.50
2023-01-04T02:18:10.024Z,98190.66
2023-01-04T02:20:48.257Z,98186.69
2023-01-04T02:24:02.803Z,98185.97
2023-01-04T02:27:33.646Z,98185.41
2023-01-04T02:30:30.430Z,98180.59
2023-01-04T02:33:22.366Z,98182.81
2023-01-04T02:36:06.184Z,98186.19
2023-01-04T02:38:48.017Z,98176.69
2023-01-04T02:41:29.513Z,98173.75
2023-01-04T02:44:25.484Z,98168.69
2023-01-04T02:47:03.486Z,98180.22
2023-01-04T02:49:51.512Z,98178.69
2023-01-04T02:52:21.357Z,98179.78
2023-01-04T02:54:54.380Z,98173.69
2023-01-04T02:57:36.492Z,98167.81
2023-01-04T03:00:20.662Z,98169.00
2023-01-04T03:03:37.195Z,98163.44
2023-01-04T03:06:18.466Z,98154.50
2023-01-04T03:08:55.622Z,98150.25
2023-01-04T03:11:50.206Z,98147.69
2023-01-04T03:14:32.165Z,98146.53
2023-01-04T03:17:06.312Z,98138.88
2023-01-04T03:19:55.162Z,98126.88
2023-01-04T03:22:52.461Z,98124.53
2023-01-04T03:25:47.018Z,98113.72
2023-01-04T03:28:36.529Z,98118.41
2023-01-04T03:31:40.351Z,98117.56
2023-01-04T03:34:26.471Z,98119.22
2023-01-04T03:37:08.626Z,98116.25
2023-01-04T03:40:12.447Z,98111.91
2023-01-04T03:43:07.450Z,98096.06
2023-01-04T03:46:02.465Z,98097.22
2023-01-04T03:48:37.729Z,98092.06
2023-01-04T03:51:16.417Z,98089.75
2023-01-04T03:53:55.518Z,98086.00
2023-01-04T03:56:27.731Z,98079.78
2023-01-04T03:58:57.302Z,98082.31
2023-01-04T04:01:27.974Z,98075.38
2023-01-04T04:04:14.635Z,98075.06
2023-01-04T04:07:00.691Z,98070.31
2023-01-04T04:09:29.245Z,98083.56
2023-01-04T04:11:59.546Z,98074.97
2023-01-04T04:14:28.231Z,98074.09
2023-01-04T04:16:56.888Z,98067.03
2023-01-04T04:19:25.545Z,98061.47
2023-01-04T04:21:53.959Z,98060.50
2023-01-04T04:24:26.175Z,98058.38
2023-01-04T04:26:56.097Z,98054.13
2023-01-04T04:29:26.515Z,98053.59
2023-01-04T04:31:55.226Z,98062.06
2023-01-04T04:34:23.952Z,98066.63
2023-01-04T04:36:52.485Z,98063.75
2023-01-04T04:39:21.075Z,98066.78
2023-01-04T04:41:48.355Z,98072.28
2023-01-04T04:44:19.190Z,98061.47
2023-01-04T04:46:50.632Z,98053.53
2023-01-04T04:49:19.697Z,98059.50
2023-01-04T04:51:48.820Z,98055.50
2023-01-04T04:54:19.738Z,98052.28
2023-01-04T04:56:48.977Z,98046.38
2023-01-04T04:59:17.962Z,98050.50
2023-01-04T05:01:48.119Z,98049.16
2023-01-04T05:04:19.497Z,98048.34
2023-01-04T05:06:50.276Z,98054.06
2023-01-04T05:09:19.066Z,98048.47
2023-01-04T05:12:05.432Z,98055.84
2023-01-04T05:14:34.002Z,98057.56
2023-01-04T05:17:03.783Z,98059.81
2023-01-04T05:19:32.332Z,98053.38
2023-01-04T05:22:00.620Z,98058.59
2023-01-04T05:24:28.954Z,98050.03
2023-01-04T05:26:57.653Z,98048.38
2023-01-04T05:29:43.730Z,98045.50
2023-01-04T05:32:13.373Z,98038.03
2023-01-04T05:34:42.133Z,98037.84
2023-01-04T05:37:10.435Z,98024.91
2023-01-04T05:39:39.033Z,98034.44
2023-01-04T05:42:24.650Z,98039.34
2023-01-04T05:44:53.509Z,98032.28
2023-01-04T05:47:24.290Z,98039.34
2023-01-04T05:49:53.194Z,98026.06
2023-01-04T05:52:22.040Z,98025.56
2023-01-04T05:54:50.445Z,98025.56
2023-01-04T05:57:19.076Z,98035.03
2023-01-04T05:59:47.565Z,98031.53
2023-01-04T06:02:18.846Z,98027.16
2023-01-04T06:04:54.702Z,98017.44
2023-01-04T06:07:28.829Z,98015.53
2023-01-04T06:09:57.575Z,98009.84
2023-01-04T06:12:26.241Z,98006.31
2023-01-04T06:14:54.821Z,98004.69
2023-01-04T06:17:23.628Z,98008.44
2023-01-04T06:19:53.300Z,98020.91
2023-01-04T06:22:22.241Z,98001.97
2023-01-04T06:24:50.820Z,97994.66
2023-01-04T06:27:19.696Z,97999.28
2023-01-04T06:29:48.343Z,98009.84
2023-01-04T06:32:17.094Z,98011.72
2023-01-04T06:34:45.828Z,98017.69
2023-01-04T06:37:15.391Z,98009.88
2023-01-04T06:39:43.977Z,98011.53
2023-01-04T06:42:32.603Z,98013.44
2023-01-04T06:45:00.844Z,98012.88
2023-01-04T06:47:29.163Z,98010.47
2023-01-04T06:49:57.795Z,98010.75
2023-01-04T06:52:28.239Z,98000.75
2023-01-04T06:54:56.515Z,97997.03
2023-01-04T06:57:25.127Z,97993.53
2023-01-04T06:59:53.729Z,97997.41
2023-01-04T07:02:22.396Z,97994.72
2023-01-04T07:04:51.204Z,97988.53
2023-01-04T07:07:19.572Z,97990.78
2023-01-04T07:09:49.379Z,97989.25
2023-01-04T07:12:17.925Z,97979.00
2023-01-04T07:14:46.539Z,97981.47
2023-01-04T07:17:14.929Z,97977.41
2023-01-04T07:19:43.517Z,97980.97
2023-01-04T07:22:12.227Z,97980.72
2023-01-04T07:24:41.050Z,97971.00
2023-01-04T07:27:11.498Z,97968.84
2023-01-04T07:29:43.858Z,97960.19
2023-01-04T07:32:14.218Z,97967.50
2023-01-04T07:34:43.416Z,97968.59
2023-01-04T07:37:13.088Z,97968.59
2023-01-04T07:39:41.778Z,97963.50
2023-01-04T07:42:11.516Z,97968.75
2023-01-04T07:44:40.219Z,97961.53
2023-01-04T07:47:08.839Z,97963.50
2023-01-04T07:49:37.503Z,97960.56
2023-01-04T07:52:06.224Z,97958.47
2023-01-04T07:54:34.818Z,97953.63
2023-01-04T07:57:03.461Z,97960.75
2023-01-04T07:59:33.067Z,97967.97
2023-01-04T08:02:01.807Z,97962.22
2023-01-04T08:04:34.897Z,97962.47
2023-01-04T08:07:03.868Z,97961.13
2023-01-04T08:09:32.478Z,97960.56
2023-01-04T08:12:00.805Z,97957.84
2023-01-04T08:14:29.324Z,97964.59
2023-01-04T08:16:59.372Z,97954.28
2023-01-04T08:19:28.700Z,97956.16
2023-01-04T08:21:57.277Z,97954.78
2023-01-04T08:24:25.746Z,97961.06
2023-01-04T08:26:54.318Z,97948.34
2023-01-04T08:29:22.584Z,97947.50
2023-01-04T08:31:50.990Z,97950.53
2023-01-04T08:34:20.700Z,97943.81
2023-01-04T08:36:53.278Z,97945.78
2023-01-04T08:39:21.975Z,97942.53
2023-01-04T08:42:00.535Z,97939.03
2023-01-04T08:44:31.442Z,97940.91
2023-01-04T08:46:59.860Z,97932.75
2023-01-04T08:49:29.560Z,97916.97
2023-01-04T08:51:58.433Z,97917.53
2023-01-04T08:54:27.051Z,97917.84
2023-01-04T08:56:55.732Z,97923.56
2023-01-04T08:59:24.013Z,97921.41
2023-01-04T09:01:52.759Z,97924.34
2023-01-04T09:04:21.247Z,97921.66
2023-01-04T09:06:51.160Z,97925.72
2023-01-04T09:09:19.752Z,97925.19
2023-01-04T09:11:48.661Z,97918.13
2023-01-04T09:14:17.226Z,97917.56
2023-01-04T09:16:46.054Z,97914.84
2023-01-04T09:19:21.440Z,97909.16
2023-01-04T09:21:51.878Z,97903.44
2023-01-04T09:24:20.524Z,97896.38
2023-01-04T09:26:49.174Z,97895.84
2023-01-04T09:29:18.060Z,97886.91
2023-01-04T09:31:46.861Z,97877.66
2023-01-04T09:34:17.542Z,97879.03
2023-01-04T09:36:48.762Z,97883.34
2023-01-04T09:39:22.954Z,97877.41
2023-01-04T09:41:58.274Z,97880.38
2023-01-04T09:47:35.531Z,97870.88
2023-01-04T09:50:13.899Z,97857.28
2023-01-04T09:52:57.752Z,97863.50
2023-01-04T09:55:39.779Z,97867.03
2023-01-04T09:58:22.626Z,97859.69
2023-01-04T10:01:00.554Z,97850.16
2023-01-04T10:03:34.537Z,97862.66
2023-01-04T10:06:04.612Z,97853.69
2023-01-04T10:08:33.553Z,97843.34
2023-01-04T10:11:18.564Z,97840.06
2023-01-04T10:14:07.168Z,97832.72
2023-01-04T10:17:13.312Z,97831.63
2023-01-04T10:23:40.738Z,97835.44
2023-01-04T10:26:14.817Z,97839.25
2023-01-04T10:29:08.339Z,97833.00
2023-01-04T10:31:44.850Z,97822.66
2023-01-04T10:34:25.631Z,97821.31
2023-01-04T10:36:59.637Z,97814.75
2023-01-04T10:39:33.464Z,97807.94
2023-01-04T10:42:19.766Z,97808.50
2023-01-04T10:45:09.489Z,97810.94
2023-01-04T10:47:53.643Z,97809.03
2023-01-04T10:50:28.434Z,97803.88
2023-01-04T10:53:05.210Z,97804.97
2023-01-04T10:55:47.141Z,97798.97
2023-01-04T10:58:38.665Z,97785.31
2023-01-04T11:01:17.247Z,97777.69
2023-01-04T11:03:53.042Z,97781.44
2023-01-04T11:06:27.824Z,97770.50
2023-01-04T11:09:00.313Z,97769.66
2023-01-04T11:11:35.113Z,97770.69
2023-01-04T11:14:05.448Z,97764.97
2023-01-04T11:16:34.108Z,97764.72
2023-01-04T11:19:04.305Z,97759.00
2023-01-04T11:21:42.183Z,97754.91
2023-01-04T11:24:31.474Z,97756.19
2023-01-04T11:27:07.107Z,97752.91
2023-01-04T11:29:47.331Z,97751.31
2023-01-04T11:32:28.742Z,97742.31
2023-01-04T11:34:57.991Z,97748.28
2023-01-04T11:37:30.236Z,97742.81
2023-01-04T11:40:29.375Z,97738.22
2023-01-04T11:43:16.417Z,97731.16
2023-01-04T11:45:56.281Z,97732.25
2023-01-04T11:48:39.667Z,97734.44
2023-01-04T11:51:18.777Z,97730.63
2023-01-04T11:53:57.651Z,97725.47
2023-01-04T11:56:29.299Z,97723.59
2023-01-04T11:59:22.882Z,97729.88
2023-01-04T12:02:50.485Z,97727.72
2023-01-04T12:05:29.061Z,97724.94
2023-01-04T12:07:59.739Z,97718.63
2023-01-04T12:10:29.682Z,97699.81
2023-01-04T12:13:01.175Z,97707.09
2023-01-04T12:15:40.327Z,97701.03
2023-01-04T12:20:59.636Z,97697.69
2023-01-04T12:23:28.407Z,97703.41
2023-01-04T12:25:59.241Z,97688.41
2023-01-04T12:28:34.413Z,97694.13
2023-01-04T12:31:33.072Z,97682.94
2023-01-04T12:34:42.443Z,97675.28
2023-01-04T12:37:49.395Z,97681.66
2023-01-04T12:40:56.410Z,97685.63
2023-01-04T12:43:27.804Z,97665.19
2023-01-04T12:46:59.052Z,97658.13
2023-01-04T12:50:00.579Z,97656.97
2023-01-04T12:53:02.261Z,97641.69
2023-01-04T12:56:00.253Z,97644.31
2023-01-04T13:01:28.687Z,97635.78
2023-01-04T13:04:05.638Z,97637.56
2023-01-04T13:06:43.822Z,97638.91
2023-01-04T13:09:23.700Z,97626.31
2023-01-04T13:12:15.326Z,97621.28
2023-01-04T13:14:50.247Z,97630.00
2023-01-04T13:17:24.818Z,97623.97
2023-01-04T13:19:53.741Z,97616.19
2023-01-04T13:22:29.710Z,97609.66
2023-01-04T13:25:02.970Z,97605.09
2023-01-04T13:27:33.499Z,97598.09
2023-01-04T13:30:03.408Z,97587.56
2023-01-04T13:32:47.033Z,97597.59
2023-01-04T13:35:23.402Z,97609.81
2023-01-04T13:37:53.212Z,97609.94
2023-01-04T13:40:29.639Z,97606.19
2023-01-04T13:43:14.248Z,97597.72
2023-01-04T13:45:53.591Z,97590.56
2023-01-04T13:48:24.867Z,97593.56
2023-01-04T13:51:04.999Z,97593.88
2023-01-04T13:53:34.325Z,97588.69
2023-01-04T13:56:04.501Z,97583.81
2023-01-04T13:58:36.150Z,97586.25
2023-01-04T14:01:08.913Z,97579.75
2023-01-04T14:03:42.047Z,97573.50
2023-01-04T14:06:27.496Z,97577.03
2023-01-04T14:09:06.069Z,97579.25
2023-01-04T14:12:09.104Z,97568.06
2023-01-04T14:14:49.869Z,97568.06
2023-01-04T14:17:36.019Z,97558.66
2023-01-04T14:20:07.601Z,97548.63
2023-01-04T14:22:43.093Z,97533.09
2023-01-04T14:25:43.555Z,97536.41
2023-01-04T14:28:33.921Z,97550.97
2023-01-04T14:31:44.786Z,97524.16
2023-01-04T14:34:15.702Z,97515.41
2023-01-04T14:36:45.118Z,97529.09
2023-01-04T14:39:36.376Z,97526.38
2023-01-04T14:42:06.144Z,97528.50
2023-01-04T14:44:36.243Z,97530.94
2023-01-04T14:47:07.320Z,97516.31
2023-01-04T14:49:35.872Z,97526.38
2023-01-04T14:52:11.941Z,97528.16
2023-01-04T14:54:40.539Z,97526.53
2023-01-04T14:57:10.227Z,97517.28
2023-01-04T14:59:38.800Z,97527.06
2023-01-04T15:02:11.206Z,97531.91
2023-01-04T15:04:40.072Z,97528.16
2023-01-04T15:07:28.795Z,97530.56
2023-01-04T15:09:57.325Z,97537.66
2023-01-04T15:12:25.972Z,97530.81
2023-01-04T15:14:54.570Z,97538.16
2023-01-04T15:17:24.230Z,97534.72
2023-01-04T15:19:52.895Z,97532.72
2023-01-04T15:22:21.512Z,97536.84
2023-01-04T15:24:50.065Z,97542.97
2023-01-04T15:27:18.655Z,97541.53
2023-01-04T15:29:47.240Z,97544.53
2023-01-04T15:32:15.933Z,97548.34
2023-01-04T15:34:47.116Z,97546.50
2023-01-04T15:37:21.814Z,97547.88
2023-01-04T15:39:56.729Z,97555.47
2023-01-04T15:42:46.221Z,97548.91
2023-01-04T15:45:14.523Z,97543.69
2023-01-04T15:47:43.089Z,97528.97
2023-01-04T15:50:12.837Z,97524.91
2023-01-04T15:52:41.477Z,97523.72
2023-01-04T15:55:10.765Z,97537.16
2023-01-04T15:57:43.715Z,97541.25
2023-01-04T16:00:14.408Z,97530.28
2023-01-04T16:02:42.960Z,97522.09
2023-01-04T16:05:12.712Z,97511.75
2023-01-04T16:07:41.395Z,97510.13
2023-01-04T16:10:10.725Z,97511.16
2023-01-04T16:12:48.713Z,97494.50
2023-01-04T16:15:22.756Z,97504.00
2023-01-04T16:17:51.456Z,97492.72
2023-01-04T16:20:21.743Z,97488.09
2023-01-04T16:22:50.405Z,97482.09
2023-01-04T16:25:19.019Z,97489.69
2023-01-04T16:27:47.634Z,97507.06
2023-01-04T16:30:16.352Z,97497.06
2023-01-04T16:32:45.805Z,97505.84
2023-01-04T16:35:14.438Z,97491.72
2023-01-04T16:37:44.461Z,97493.94
2023-01-04T16:40:14.020Z,97504.25
2023-01-04T16:42:43.549Z,97496.00
2023-01-04T16:45:12.799Z,97496.97
2023-01-04T16:47:44.435Z,97483.06
2023-01-04T16:50:14.118Z,97491.13
2023-01-04T16:52:43.875Z,97480.31
2023-01-04T16:55:12.550Z,97479.22
2023-01-04T16:57:41.154Z,97497.47
2023-01-04T17:00:11.098Z,97476.50
2023-01-04T17:02:39.624Z,97483.13
2023-01-04T17:05:08.933Z,97474.47
2023-01-04T17:07:37.532Z,97471.75
2023-01-04T17:10:08.551Z,97467.72
2023-01-04T17:12:47.190Z,97462.72
2023-01-04T17:15:43.168Z,97472.06
2023-01-04T17:18:06.289Z,97465.38
2023-01-04T17:20:34.976Z,97457.44
2023-01-04T17:23:03.840Z,97451.47
2023-01-04T17:25:33.858Z,97454.47
2023-01-04T17:28:02.490Z,97459.13
2023-01-04T17:30:31.303Z,97452.25
2023-01-04T17:32:59.589Z,97447.63
2023-01-04T17:35:28.242Z,97436.53
2023-01-04T17:37:56.884Z,97436.81
2023-01-04T17:40:25.521Z,97433.84
2023-01-04T17:42:55.436Z,97429.19
2023-01-04T17:45:23.794Z,97430.13
2023-01-04T17:47:52.474Z,97445.97
2023-01-04T17:50:22.206Z,97426.63
2023-01-04T17:52:51.770Z,97436.28
2023-01-04T17:55:21.463Z,97435.88
2023-01-04T17:57:49.884Z,97430.13
2023-01-04T18:00:20.515Z,97423.41
2023-01-04T18:02:49.200Z,97414.22
2023-01-04T18:05:17.889Z,97409.88
2023-01-04T18:07:46.526Z,97407.97
2023-01-04T18:10:21.522Z,97411.28
2023-01-04T18:13:03.904Z,97400.78
2023-01-04T18:15:36.179Z,97385.19
2023-01-04T18:18:12.554Z,97388.69
2023-01-04T18:20:41.139Z,97378.09
2023-01-04T18:23:19.080Z,97382.34
2023-01-04T18:25:52.805Z,97382.41
2023-01-04T18:28:21.565Z,97387.28
2023-01-04T18:30:51.539Z,97391.63
2023-01-04T18:33:20.171Z,97389.41
2023-01-04T18:35:48.719Z,97397.28
2023-01-04T18:38:17.315Z,97402.03
2023-01-04T18:40:46.836Z,97404.47
2023-01-04T18:43:15.385Z,97406.59
2023-01-04T18:45:43.982Z,97395.69
2023-01-04T18:48:13.586Z,97397.53
2023-01-04T18:50:42.622Z,97381.38
2023-01-04T18:53:10.965Z,97387.03
2023-01-04T18:55:40.251Z,97376.75
2023-01-04T18:58:09.179Z,97390.78
2023-01-04T19:00:37.769Z,97385.44
2023-01-04T19:03:06.512Z,97380.69
2023-01-04T19:05:36.425Z,97379.59
2023-01-04T19:08:05.300Z,97377.06
2023-01-04T19:10:33.904Z,97374.03
2023-01-04T19:13:02.489Z,97374.84
2023-01-04T19:15:30.891Z,97379.09
2023-01-04T19:17:59.418Z,97374.25
2023-01-04T19:20:27.761Z,97373.94
2023-01-04T19:22:57.336Z,97379.78
2023-01-04T19:25:28.487Z,97370.41
2023-01-04T19:27:57.304Z,97362.16
2023-01-04T19:30:25.891Z,97359.22
2023-01-04T19:32:54.522Z,97360.41
2023-01-04T19:35:23.115Z,97360.81
2023-01-04T19:37:51.737Z,97361.34
2023-01-04T19:40:21.438Z,97358.50
2023-01-04T19:42:49.980Z,97365.16
2023-01-04T19:45:19.109Z,97371.03
2023-01-04T19:47:50.225Z,97360.03
2023-01-04T19:50:19.125Z,97373.16
2023-01-04T19:52:47.755Z,97366.88
2023-01-04T19:55:16.353Z,97368.00
2023-01-04T19:57:46.382Z,97380.78
2023-01-04T20:00:16.094Z,97370.22
2023-01-04T20:02:44.771Z,97362.03
2023-01-04T20:05:13.387Z,97374.97
2023-01-04T20:07:44.250Z,97368.59
2023-01-04T20:10:14.629Z,97373.34
2023-01-04T20:12:43.681Z,97381.31
2023-01-04T20:15:14.273Z,97370.13
2023-01-04T20:17:42.878Z,97383.75
2023-01-04T20:20:11.993Z,97375.88
2023-01-04T20:22:40.979Z,97375.75
2023-01-04T20:25:10.016Z,97370.50
2023-01-04T20:27:38.912Z,97360.47
2023-01-04T20:30:09.304Z,97374.31
2023-01-04T20:32:38.936Z,97371.78
2023-01-04T20:35:08.282Z,97380.25
2023-01-04T20:37:36.832Z,97361.28
2023-01-04T20:40:06.029Z,97364.28
2023-01-04T20:42:53.144Z,97377.41
2023-01-04T20:45:21.389Z,97366.94
2023-01-04T20:47:50.982Z,97360.78
2023-01-04T20:50:19.243Z,97349.00
2023-01-04T20:52:47.810Z,97369.06
2023-01-04T20:55:17.699Z,97368.66
2023-01-04T20:57:46.507Z,97370.19
2023-01-04T21:00:16.558Z,97361.03
2023-01-04T21:02:45.246Z,97365.72
2023-01-04T21:05:15.455Z,97358.50
2023-01-04T21:07:44.182Z,97366.75
2023-01-04T21:10:12.745Z,97359.69
2023-01-04T21:12:41.324Z,97355.56
2023-01-04T21:15:10.771Z,97342.97
2023-01-04T21:17:39.374Z,97359.31
2023-01-04T21:20:08.927Z,97359.72
2023-01-04T21:22:38.586Z,97349.22
2023-01-04T21:25:07.829Z,97353.34
2023-01-04T21:27:36.814Z,97351.44
2023-01-04T21:30:06.906Z,97343.16
2023-01-04T21:32:35.489Z,97341.94
2023-01-04T21:35:04.195Z,97337.81
2023-01-04T21:37:32.807Z,97324.38
2023-01-04T21:40:02.532Z,97328.09
2023-01-04T21:42:32.206Z,97336.09
2023-01-04T21:45:00.452Z,97325.19
2023-01-04T21:47:31.856Z,97340.13
2023-01-04T21:50:00.499Z,97327.31
2023-01-04T21:52:29.132Z,97332.56
2023-01-04T21:54:57.684Z,97344.16
2023-01-04T21:57:27.287Z,97343.75
2023-01-04T21:59:55.847Z,97344.56
2023-01-04T22:02:24.532Z,97358.81
2023-01-04T22:04:53.151Z,97357.69
2023-01-04T22:07:21.758Z,97342.56
2023-01-04T22:09:57.042Z,97339.91
2023-01-04T22:12:27.267Z,97330.75
2023-01-04T22:14:55.720Z,97320.53
2023-01-04T22:17:24.447Z,97320.44
2023-01-04T22:19:53.040Z,97305.38
2023-01-04T22:22:21.431Z,97307.78
2023-01-04T22:24:49.717Z,97302.34
2023-01-04T22:27:18.373Z,97307.97
2023-01-04T22:29:47.997Z,97311.84
2023-01-04T22:32:16.413Z,97303.78
2023-01-04T22:34:44.690Z,97298.09
2023-01-04T22:37:13.310Z,97295.28
2023-01-04T22:39:41.853Z,97315.69
2023-01-04T22:42:10.486Z,97309.63
2023-01-04T22:44:39.215Z,97316.88
2023-01-04T22:47:09.541Z,97310.00
2023-01-04T22:49:38.254Z,97314.16
2023-01-04T22:52:07.007Z,97299.72
2023-01-04T22:54:35.589Z,97294.34
2023-01-04T22:57:04.342Z,97276.28
2023-01-04T22:59:32.902Z,97303.06
2023-01-04T23:02:01.353Z,97297.59
2023-01-04T23:04:31.049Z,97296.34
2023-01-04T23:06:59.713Z,97300.09
2023-01-04T23:09:28.290Z,97293.44
2023-01-04T23:11:56.938Z,97295.38
2023-01-04T23:14:25.589Z,97284.34
2023-01-04T23:16:54.349Z,97300.03
2023-01-04T23:19:22.975Z,97293.75
2023-01-04T23:21:52.649Z,97300.09
2023-01-04T23:24:21.418Z,97305.38
2023-01-04T23:26:49.930Z,97304.75
2023-01-04T23:29:18.455Z,97302.53
2023-01-04T23:31:47.085Z,97307.78
2023-01-04T23:34:15.511Z,97310.03
2023-01-04T23:36:44.200Z,97321.44
2023-01-04T23:39:17.023Z,97315.47
2023-01-04T23:41:46.107Z,97299.63
2023-01-04T23:44:18.421Z,97310.03
2023-01-04T23:46:47.464Z,97309.53
2023-01-04T23:49:16.032Z,97297.81
2023-01-04T23:51:44.757Z,97292.88
2023-01-04T23:54:14.873Z,97292.34
2023-01-04T23:56:43.466Z,97294.59
2023-01-04T23:59:12.144Z,97284.38
